Lincoln, North Dakota
Current Conditions -  °F | °C
As of 10:52 PM on Wednesday 26 Nov 2014 (Local Time) from KBIS Reporting Station
Scattered Clouds Scattered Clouds  
Wind Chill: -18°   Ceiling: Unl
Heat Index: -7°   Visibility: 10mi
Dew Point: -12°   Wind: 5mph
Humidity: 79%   Direction: 50°NE
Pressure: 30.47"   Gusts: NA
Location:  46.7287°N, 100.616°W
Report Text: KBIS 270452Z AUTO 05004KT 10SM SCT060 M22/M24 A3047 RMK AO2 SLP368 T12171244
Loading
Personal Weather Stations






























Interactive Weather Map New forecast layout! Learn more

10-Day Weather Forecast

Advertisements
Track Severe Weather on mobile